Time,TemperatureF,DewpointF,PressureIn,WindDirection,WindDirectionDegrees,WindSpeedMPH,WindSpeedGustMPH,Humidity,HourlyPrecipIn,Conditions,Clouds,dailyrainin,SoftwareType,DateUTC
2013-02-26 00:00:00,31.4,19.9,30.06,ENE,71,3.5,3.5,62,0.00,CLR,,0.00,WeatherDisplay:10.37,2013-02-26 05:00:00,
2013-02-26 00:01:00,31.4,19.9,30.06,ENE,72,3.5,3.5,62,0.00,CLR,,0.00,WeatherDisplay:10.37,2013-02-26 05:01:00,
2013-02-26 00:06:00,31.1,20.0,30.06,ENE,72,2.3,2.3,63,0.00,CLR,,0.00,WeatherDisplay:10.37,2013-02-26 05:06:00,
2013-02-26 00:11:00,30.9,19.8,30.06,East,92,3.0,3.0,63,0.00,CLR,,0.00,WeatherDisplay:10.37,2013-02-26 05:11:00,
2013-02-26 00:16:00,30.9,19.8,30.05,East,92,3.5,3.5,63,0.00,CLR,,0.00,WeatherDisplay:10.37,2013-02-26 05:16:00,
2013-02-26 00:21:00,31.2,20.1,30.05,ENE,74,3.5,3.5,63,0.00,CLR,,0.00,WeatherDisplay:10.37,2013-02-26 05:21:00,
2013-02-26 00:26:00,30.8,19.7,30.05,ENE,76,2.0,2.0,63,0.00,CLR,,0.00,WeatherDisplay:10.37,2013-02-26 05:26:00,
2013-02-26 00:31:00,30.8,19.7,30.06,ENE,76,1.0,0.0,63,0.00,CLR,,0.00,WeatherDisplay:10.37,2013-02-26 05:31:00,
2013-02-26 00:36:00,30.9,19.8,30.06,ENE,76,3.5,3.5,63,0.00,CLR,,0.00,WeatherDisplay:10.37,2013-02-26 05:36:00,
2013-02-26 00:41:00,30.8,19.7,30.07,East,79,0.0,0.0,63,0.00,CLR,,0.00,WeatherDisplay:10.37,2013-02-26 05:41:00,
2013-02-26 00:46:00,30.9,19.8,30.07,ESE,111,1.2,1.2,63,0.00,CLR,,0.00,WeatherDisplay:10.37,2013-02-26 05:46:00,
2013-02-26 00:51:00,31.8,19.9,30.07,East,80,1.2,0.0,61,0.00,CLR,,0.00,WeatherDisplay:10.37,2013-02-26 05:51:00,
2013-02-26 00:56:00,31.3,19.8,30.06,ENE,71,3.5,3.5,62,0.00,CLR,,0.00,WeatherDisplay:10.37,2013-02-26 05:56:00,
2013-02-26 01:01:00,30.8,19.3,30.05,ENE,78,3.0,3.0,62,0.00,CLR,,0.00,WeatherDisplay:10.37,2013-02-26 06:01:00,
2013-02-26 01:06:00,30.6,19.5,30.05,East,84,2.3,2.3,63,0.00,CLR,,0.00,WeatherDisplay:10.37,2013-02-26 06:06:00,
2013-02-26 01:11:00,30.5,19.4,30.05,East,89,3.5,3.5,63,0.00,CLR,,0.00,WeatherDisplay:10.37,2013-02-26 06:11:00,
2013-02-26 01:16:00,30.5,19.8,30.05,ESE,102,3.0,3.0,64,0.00,CLR,,0.00,WeatherDisplay:10.37,2013-02-26 06:16:00,
2013-02-26 01:21:00,31.7,19.8,30.05,East,94,5.0,5.0,61,0.00,CLR,,0.00,WeatherDisplay:10.37,2013-02-26 06:21:00,
2013-02-26 01:26:00,32.3,20.0,30.06,SE,126,5.0,5.0,60,0.00,CLR,,0.00,WeatherDisplay:10.37,2013-02-26 06:26:00,
2013-02-26 01:31:00,32.6,19.8,30.05,ESE,103,3.5,3.5,59,0.00,CLR,,0.00,WeatherDisplay:10.37,2013-02-26 06:31:00,
2013-02-26 01:36:00,32.4,19.7,30.06,East,86,4.0,4.0,59,0.00,CLR,,0.00,WeatherDisplay:10.37,2013-02-26 06:36:00,
2013-02-26 01:41:00,32.6,19.8,30.06,East,93,3.5,3.5,59,0.00,CLR,,0.00,WeatherDisplay:10.37,2013-02-26 06:41:00,
2013-02-26 01:46:00,32.5,19.7,30.06,East,82,3.5,3.5,59,0.00,CLR,,0.00,WeatherDisplay:10.37,2013-02-26 06:46:00,
2013-02-26 01:51:00,32.2,19.5,30.06,East,92,3.5,3.5,59,0.00,CLR,,0.00,WeatherDisplay:10.37,2013-02-26 06:51:00,
2013-02-26 01:56:00,32.4,19.7,30.06,East,101,3.5,3.5,59,0.00,CLR,,0.00,WeatherDisplay:10.37,2013-02-26 06:56:00,
2013-02-26 02:01:00,32.7,19.9,30.06,East,88,6.0,6.0,59,0.00,CLR,,0.00,WeatherDisplay:10.37,2013-02-26 07:01:00,
2013-02-26 02:06:00,32.7,19.9,30.06,East,99,4.6,4.6,59,0.00,CLR,,0.00,WeatherDisplay:10.37,2013-02-26 07:06:00,
2013-02-26 02:11:00,32.5,19.7,30.05,East,96,3.5,3.5,59,0.00,CLR,,0.00,WeatherDisplay:10.37,2013-02-26 07:11:00,
2013-02-26 02:16:00,32.1,19.4,30.05,East,88,2.3,2.3,59,0.00,CLR,,0.00,WeatherDisplay:10.37,2013-02-26 07:16:00,
2013-02-26 02:21:00,31.6,19.3,30.05,East,88,3.5,3.5,60,0.00,CLR,,0.00,WeatherDisplay:10.37,2013-02-26 07:21:00,
2013-02-26 02:26:00,31.3,19.4,30.05,East,96,3.5,3.5,61,0.00,CLR,,0.00,WeatherDisplay:10.37,2013-02-26 07:26:00,
2013-02-26 02:31:00,31.7,19.8,30.05,East,91,2.3,2.3,61,0.00,CLR,,0.00,WeatherDisplay:10.37,2013-02-26 07:31:00,
2013-02-26 02:36:00,31.9,19.6,30.05,East,96,3.5,3.5,60,0.00,CLR,,0.00,WeatherDisplay:10.37,2013-02-26 07:36:00,
2013-02-26 02:41:00,32.1,19.4,30.04,East,90,3.5,3.5,59,0.00,CLR,,0.00,WeatherDisplay:10.37,2013-02-26 07:41:00,
2013-02-26 02:46:00,31.7,19.4,30.04,East,85,2.3,2.3,60,0.00,CLR,,0.00,WeatherDisplay:10.37,2013-02-26 07:46:00,
2013-02-26 02:51:00,30.8,19.3,30.03,East,84,3.5,3.5,62,0.00,CLR,,0.00,WeatherDisplay:10.37,2013-02-26 07:51:00,
2013-02-26 02:56:00,30.5,19.0,30.02,East,92,3.5,3.5,62,0.00,CLR,,0.00,WeatherDisplay:10.37,2013-02-26 07:56:00,
2013-02-26 03:01:00,30.1,19.0,30.01,East,94,3.5,3.5,63,0.00,CLR,,0.00,WeatherDisplay:10.37,2013-02-26 08:01:00,
2013-02-26 03:06:00,30.1,19.0,30.01,East,92,3.5,3.5,63,0.00,CLR,,0.00,WeatherDisplay:10.37,2013-02-26 08:06:00,
2013-02-26 03:11:00,30.2,19.1,30.01,East,80,3.5,3.5,63,0.00,CLR,,0.00,WeatherDisplay:10.37,2013-02-26 08:11:00,
2013-02-26 03:16:00,30.3,19.2,30.01,East,81,3.5,3.5,63,0.00,CLR,,0.00,WeatherDisplay:10.37,2013-02-26 08:16:00,
2013-02-26 03:21:00,30.3,19.2,30.01,East,95,3.5,3.5,63,0.00,CLR,,0.00,WeatherDisplay:10.37,2013-02-26 08:21:00,
2013-02-26 03:26:00,30.2,19.1,30.01,ENE,75,3.5,3.5,63,0.00,CLR,,0.00,WeatherDisplay:10.37,2013-02-26 08:26:00,
2013-02-26 03:31:00,30.1,19.0,30.01,ENE,77,2.3,2.3,63,0.00,CLR,,0.00,WeatherDisplay:10.37,2013-02-26 08:31:00,
2013-02-26 03:36:00,29.9,19.2,30.00,East,82,3.5,3.5,64,0.00,CLR,,0.00,WeatherDisplay:10.37,2013-02-26 08:36:00,
2013-02-26 03:41:00,30.0,19.3,30.00,East,88,3.5,3.5,64,0.00,CLR,,0.00,WeatherDisplay:10.37,2013-02-26 08:41:00,
2013-02-26 03:46:00,30.1,19.4,29.99,ENE,71,3.5,3.5,64,0.00,CLR,,0.00,WeatherDisplay:10.37,2013-02-26 08:46:00,
2013-02-26 03:51:00,30.1,19.4,29.99,East,85,3.5,3.5,64,0.00,CLR,,0.00,WeatherDisplay:10.37,2013-02-26 08:51:00,
2013-02-26 03:56:00,30.2,19.5,29.99,East,86,3.5,3.5,64,0.00,CLR,,0.00,WeatherDisplay:10.37,2013-02-26 08:56:00,
2013-02-26 04:01:00,30.3,19.2,29.99,East,85,3.5,3.5,63,0.00,CLR,,0.00,WeatherDisplay:10.37,2013-02-26 09:01:00,
2013-02-26 04:06:00,30.2,19.5,29.98,East,90,3.5,3.5,64,0.00,CLR,,0.00,WeatherDisplay:10.37,2013-02-26 09:06:00,
2013-02-26 04:11:00,30.3,19.6,29.98,East,85,3.0,3.0,64,0.00,CLR,,0.00,WeatherDisplay:10.37,2013-02-26 09:11:00,
2013-02-26 04:16:00,30.3,19.2,29.98,East,94,3.5,3.5,63,0.00,CLR,,0.00,WeatherDisplay:10.37,2013-02-26 09:16:00,
2013-02-26 04:21:00,30.3,19.6,29.98,East,91,3.5,3.5,64,0.00,CLR,,0.00,WeatherDisplay:10.37,2013-02-26 09:21:00,
2013-02-26 04:26:00,30.5,19.4,29.98,East,86,5.0,5.0,63,0.00,CLR,,0.00,WeatherDisplay:10.37,2013-02-26 09:26:00,
2013-02-26 04:31:00,30.4,19.3,29.97,East,80,3.5,3.5,63,0.00,CLR,,0.00,WeatherDisplay:10.37,2013-02-26 09:31:00,
2013-02-26 04:36:00,30.5,19.4,29.97,East,84,3.5,3.5,63,0.00,CLR,,0.00,WeatherDisplay:10.37,2013-02-26 09:36:00,
2013-02-26 04:41:00,30.6,19.5,29.97,ENE,76,3.5,3.5,63,0.00,CLR,,0.00,WeatherDisplay:10.37,2013-02-26 09:41:00,
2013-02-26 04:46:00,30.7,19.6,29.97,ENE,78,2.3,2.3,63,0.00,CLR,,0.00,WeatherDisplay:10.37,2013-02-26 09:46:00,
2013-02-26 04:51:00,30.7,19.6,29.96,East,84,2.3,2.3,63,0.00,CLR,,0.00,WeatherDisplay:10.37,2013-02-26 09:51:00,
2013-02-26 04:56:00,30.7,19.6,29.96,East,79,3.5,3.5,63,0.00,CLR,,0.00,WeatherDisplay:10.37,2013-02-26 09:56:00,
2013-02-26 05:01:00,30.7,19.6,29.95,East,79,5.0,5.0,63,0.00,CLR,,0.00,WeatherDisplay:10.37,2013-02-26 10:01:00,
2013-02-26 05:06:00,30.8,19.3,29.95,East,81,3.5,3.5,62,0.00,CLR,,0.00,WeatherDisplay:10.37,2013-02-26 10:06:00,
2013-02-26 05:11:00,30.9,19.4,29.96,East,86,3.5,3.5,62,0.00,CLR,,0.00,WeatherDisplay:10.37,2013-02-26 10:11:00,
2013-02-26 05:16:00,31.1,19.6,29.97,East,88,3.5,3.5,62,0.00,CLR,,0.00,WeatherDisplay:10.37,2013-02-26 10:16:00,
2013-02-26 05:21:00,31.2,19.7,29.97,East,89,3.5,3.5,62,0.00,CLR,,0.00,WeatherDisplay:10.37,2013-02-26 10:21:00,
2013-02-26 05:26:00,31.2,19.7,29.97,East,86,3.5,3.5,62,0.00,CLR,,0.00,WeatherDisplay:10.37,2013-02-26 10:26:00,
2013-02-26 05:31:00,31.2,19.7,29.97,ESE,105,3.5,3.5,62,0.00,CLR,,0.00,WeatherDisplay:10.37,2013-02-26 10:31:00,
2013-02-26 05:36:00,31.2,19.7,29.98,East,99,2.3,2.3,62,0.00,CLR,,0.00,WeatherDisplay:10.37,2013-02-26 10:36:00,
2013-02-26 05:41:00,31.6,19.7,29.97,East,82,2.3,2.3,61,0.00,CLR,,0.00,WeatherDisplay:10.37,2013-02-26 10:41:00,
2013-02-26 05:46:00,31.4,19.5,29.97,ENE,71,3.5,3.5,61,0.00,CLR,,0.00,WeatherDisplay:10.37,2013-02-26 10:46:00,
2013-02-26 05:51:00,31.1,19.6,29.97,ENE,74,3.5,3.5,62,0.00,CLR,,0.00,WeatherDisplay:10.37,2013-02-26 10:51:00,
2013-02-26 05:56:00,31.1,19.6,29.97,ENE,69,4.0,4.0,62,0.00,CLR,,0.00,WeatherDisplay:10.37,2013-02-26 10:56:00,
2013-02-26 06:01:00,31.1,19.6,29.97,East,85,2.3,2.3,62,0.00,CLR,,0.00,WeatherDisplay:10.37,2013-02-26 11:01:00,
2013-02-26 06:06:00,31.1,20.0,29.97,East,84,3.5,3.5,63,0.00,CLR,,0.00,WeatherDisplay:10.37,2013-02-26 11:06:00,
2013-02-26 06:11:00,31.2,19.7,29.96,East,82,3.5,3.5,62,0.00,CLR,,0.00,WeatherDisplay:10.37,2013-02-26 11:11:00,
2013-02-26 06:16:00,31.2,19.7,29.96,East,80,3.5,3.5,62,0.00,CLR,,0.00,WeatherDisplay:10.37,2013-02-26 11:16:00,
2013-02-26 06:21:00,31.4,19.9,29.96,East,86,6.0,6.0,62,0.00,CLR,,0.00,WeatherDisplay:10.37,2013-02-26 11:21:00,
2013-02-26 06:26:00,31.7,19.8,29.95,East,80,3.5,3.5,61,0.00,CLR,,0.00,WeatherDisplay:10.37,2013-02-26 11:26:00,
2013-02-26 06:31:00,32.0,20.1,29.96,East,88,2.3,2.3,61,0.00,CLR,,0.00,WeatherDisplay:10.37,2013-02-26 11:31:00,
2013-02-26 06:36:00,31.9,20.0,29.95,East,96,3.5,3.5,61,0.00,CLR,,0.00,WeatherDisplay:10.37,2013-02-26 11:36:00,
2013-02-26 06:41:00,32.0,20.1,29.95,ESE,106,5.0,5.0,61,0.00,CLR,,0.00,WeatherDisplay:10.37,2013-02-26 11:41:00,
2013-02-26 06:46:00,32.4,20.0,29.94,East,98,5.0,5.0,60,0.00,CLR,,0.00,WeatherDisplay:10.37,2013-02-26 11:46:00,
2013-02-26 06:51:00,32.5,20.1,29.95,East,98,5.0,5.0,60,0.00,CLR,,0.00,WeatherDisplay:10.37,2013-02-26 11:51:00,
2013-02-26 06:56:00,32.9,20.1,29.94,East,88,5.0,5.0,59,0.00,CLR,,0.00,WeatherDisplay:10.37,2013-02-26 11:56:00,
2013-02-26 07:01:00,33.1,20.3,29.94,ENE,63,5.0,5.0,59,0.00,CLR,,0.00,WeatherDisplay:10.37,2013-02-26 12:01:00,
2013-02-26 07:06:00,33.2,20.4,29.94,East,89,3.5,3.5,59,0.00,CLR,,0.00,WeatherDisplay:10.37,2013-02-26 12:06:00,
2013-02-26 07:11:00,33.2,20.0,29.93,East,82,2.3,2.3,58,0.00,CLR,,0.00,WeatherDisplay:10.37,2013-02-26 12:11:00,
2013-02-26 07:16:00,33.4,20.2,29.93,East,84,5.0,5.0,58,0.00,CLR,,0.00,WeatherDisplay:10.37,2013-02-26 12:16:00,
2013-02-26 07:21:00,33.5,20.3,29.93,East,98,5.0,5.0,58,0.00,CLR,,0.00,WeatherDisplay:10.37,2013-02-26 12:21:00,
2013-02-26 07:26:00,33.5,20.3,29.93,East,96,5.0,5.0,58,0.00,CLR,,0.00,WeatherDisplay:10.37,2013-02-26 12:26:00,
2013-02-26 07:31:00,33.7,20.5,29.93,East,91,6.0,6.0,58,0.00,CLR,,0.00,WeatherDisplay:10.37,2013-02-26 12:31:00,
2013-02-26 07:36:00,34.0,20.3,29.93,East,90,5.0,5.0,57,0.00,CLR,,0.00,WeatherDisplay:10.37,2013-02-26 12:36:00,
2013-02-26 07:41:00,34.1,20.4,29.93,East,98,5.0,5.0,57,0.00,CLR,,0.00,WeatherDisplay:10.37,2013-02-26 12:41:00,
2013-02-26 07:46:00,34.4,20.7,29.93,East,99,5.0,5.0,57,0.00,CLR,,0.00,WeatherDisplay:10.37,2013-02-26 12:46:00,
2013-02-26 07:51:00,34.4,20.7,29.93,East,86,5.0,5.0,57,0.00,CLR,,0.00,WeatherDisplay:10.37,2013-02-26 12:51:00,
2013-02-26 07:56:00,34.4,20.7,29.93,East,86,6.0,6.0,57,0.00,CLR,,0.00,WeatherDisplay:10.37,2013-02-26 12:56:00,
2013-02-26 08:01:00,34.5,20.8,29.92,East,101,8.1,8.1,57,0.00,CLR,,0.00,WeatherDisplay:10.37,2013-02-26 13:01:00,
2013-02-26 08:06:00,34.6,20.9,29.92,ENE,77,7.0,7.0,57,0.00,CLR,,0.00,WeatherDisplay:10.37,2013-02-26 13:06:00,
2013-02-26 08:11:00,34.5,20.8,29.93,East,86,5.0,5.0,57,0.00,CLR,,0.00,WeatherDisplay:10.37,2013-02-26 13:11:00,
2013-02-26 08:16:00,34.7,21.0,29.93,East,99,6.0,6.0,57,0.00,CLR,,0.00,WeatherDisplay:10.37,2013-02-26 13:16:00,
2013-02-26 08:21:00,34.9,21.2,29.92,East,91,5.0,5.0,57,0.00,CLR,,0.00,WeatherDisplay:10.37,2013-02-26 13:21:00,
2013-02-26 08:26:00,35.2,21.5,29.92,East,88,5.0,5.0,57,0.00,CLR,,0.00,WeatherDisplay:10.37,2013-02-26 13:26:00,
2013-02-26 08:31:00,35.4,21.2,29.92,East,88,7.0,7.0,56,0.00,CLR,,0.00,WeatherDisplay:10.37,2013-02-26 13:31:00,
2013-02-26 08:36:00,35.6,21.4,29.92,ESE,105,5.0,5.0,56,0.00,CLR,,0.00,WeatherDisplay:10.37,2013-02-26 13:36:00,
2013-02-26 08:41:00,35.9,21.7,29.92,SE,129,3.5,3.5,56,0.00,CLR,,0.00,WeatherDisplay:10.37,2013-02-26 13:41:00,
2013-02-26 08:46:00,36.0,21.8,29.92,ESE,123,9.2,9.2,56,0.00,CLR,,0.00,WeatherDisplay:10.37,2013-02-26 13:46:00,
2013-02-26 08:51:00,36.2,22.0,29.92,East,93,5.0,5.0,56,0.00,CLR,,0.00,WeatherDisplay:10.37,2013-02-26 13:51:00,
2013-02-26 08:56:00,36.3,22.1,29.92,East,91,6.0,6.0,56,0.00,CLR,,0.00,WeatherDisplay:10.37,2013-02-26 13:56:00,
2013-02-26 09:01:00,36.5,22.3,29.92,East,96,4.0,4.0,56,0.00,CLR,,0.00,WeatherDisplay:10.37,2013-02-26 14:01:00,
2013-02-26 09:06:00,36.8,22.1,29.92,ESE,116,7.0,7.0,55,0.00,CLR,,0.00,WeatherDisplay:10.37,2013-02-26 14:06:00,
2013-02-26 09:11:00,37.1,22.4,29.92,SE,128,8.0,8.0,55,0.00,CLR,,0.00,WeatherDisplay:10.37,2013-02-26 14:11:00,
2013-02-26 09:16:00,37.3,22.6,29.93,East,87,5.0,5.0,55,0.00,CLR,,0.00,WeatherDisplay:10.37,2013-02-26 14:16:00,
2013-02-26 09:21:00,37.5,22.3,29.93,ESE,109,9.2,9.2,54,0.00,CLR,,0.00,WeatherDisplay:10.37,2013-02-26 14:21:00,
2013-02-26 09:26:00,37.8,22.6,29.93,East,99,11.5,11.5,54,0.00,CLR,,0.00,WeatherDisplay:10.37,2013-02-26 14:26:00,
2013-02-26 09:31:00,38.3,22.6,29.92,East,94,10.4,10.4,53,0.00,CLR,,0.00,WeatherDisplay:10.37,2013-02-26 14:31:00,
2013-02-26 09:36:00,38.6,22.9,29.91,East,98,11.5,11.5,53,0.00,CLR,,0.00,WeatherDisplay:10.37,2013-02-26 14:36:00,
2013-02-26 09:41:00,38.9,22.8,29.91,East,101,6.0,6.0,52,0.00,CLR,,0.00,WeatherDisplay:10.37,2013-02-26 14:41:00,
2013-02-26 09:46:00,39.1,23.4,29.91,East,96,9.2,9.2,53,0.00,CLR,,0.00,WeatherDisplay:10.37,2013-02-26 14:46:00,
2013-02-26 09:51:00,39.1,22.9,29.90,NE,50,9.2,9.2,52,0.00,CLR,,0.00,WeatherDisplay:10.37,2013-02-26 14:51:00,
2013-02-26 09:56:00,39.3,23.1,29.89,East,84,9.2,9.2,52,0.00,CLR,,0.00,WeatherDisplay:10.37,2013-02-26 14:56:00,
2013-02-26 10:01:00,39.4,23.2,29.89,SE,132,15.0,15.0,52,0.00,CLR,,0.00,WeatherDisplay:10.37,2013-02-26 15:01:00,
2013-02-26 10:06:00,39.5,23.3,29.90,SE,132,16.0,16.0,52,0.00,CLR,,0.00,WeatherDisplay:10.37,2013-02-26 15:06:00,
2013-02-26 10:11:00,39.5,23.3,29.89,ESE,103,9.2,9.2,52,0.00,CLR,,0.00,WeatherDisplay:10.37,2013-02-26 15:11:00,
2013-02-26 10:16:00,39.6,23.4,29.89,SE,128,5.0,5.0,52,0.00,CLR,,0.00,WeatherDisplay:10.37,2013-02-26 15:16:00,
2013-02-26 10:21:00,39.6,23.4,29.90,SE,143,8.0,8.0,52,0.00,CLR,,0.00,WeatherDisplay:10.37,2013-02-26 15:21:00,
2013-02-26 10:26:00,39.7,23.5,29.90,SE,128,13.0,13.0,52,0.00,CLR,,0.00,WeatherDisplay:10.37,2013-02-26 15:26:00,
2013-02-26 10:31:00,39.7,23.5,29.90,ESE,107,14.0,14.0,52,0.00,CLR,,0.00,WeatherDisplay:10.37,2013-02-26 15:31:00,
2013-02-26 10:36:00,39.7,23.5,29.90,SE,141,14.0,14.0,52,0.00,CLR,,0.00,WeatherDisplay:10.37,2013-02-26 15:36:00,
2013-02-26 10:41:00,39.7,24.0,29.90,East,96,13.0,13.0,53,0.00,CLR,,0.00,WeatherDisplay:10.37,2013-02-26 15:41:00,
2013-02-26 10:46:00,39.6,24.3,29.89,SSE,154,9.2,9.2,54,0.00,CLR,,0.00,WeatherDisplay:10.37,2013-02-26 15:46:00,
2013-02-26 10:51:00,39.5,24.7,29.90,East,99,12.0,12.0,55,0.00,CLR,,0.00,WeatherDisplay:10.37,2013-02-26 15:51:00,
2013-02-26 10:56:00,39.3,25.3,29.90,SE,130,10.4,10.4,57,0.00,CLR,,0.00,WeatherDisplay:10.37,2013-02-26 15:56:00,
2013-02-26 11:01:00,39.0,25.5,29.90,ENE,61,11.5,11.5,58,0.00,CLR,,0.00,WeatherDisplay:10.37,2013-02-26 16:01:00,
2013-02-26 11:06:00,38.7,26.0,29.90,ESE,110,9.2,9.2,60,0.00,CLR,,0.00,WeatherDisplay:10.37,2013-02-26 16:06:00,
2013-02-26 11:11:00,38.5,26.2,29.89,East,96,10.4,10.4,61,0.01,RA,,0.01,WeatherDisplay:10.37,2013-02-26 16:11:00,
2013-02-26 11:16:00,38.0,26.5,29.90,ESE,106,13.8,13.8,63,0.01,RA,,0.01,WeatherDisplay:10.37,2013-02-26 16:16:00,
2013-02-26 11:21:00,37.5,26.8,29.89,SE,145,11.5,11.5,65,0.01,CLR,,0.01,WeatherDisplay:10.37,2013-02-26 16:21:00,
2013-02-26 11:26:00,37.2,26.9,29.89,SSE,157,12.0,12.0,66,0.02,RA,,0.02,WeatherDisplay:10.37,2013-02-26 16:26:00,
2013-02-26 11:31:00,36.8,27.2,29.89,SE,129,17.3,17.3,68,0.02,RA,,0.02,WeatherDisplay:10.37,2013-02-26 16:31:00,
2013-02-26 11:36:00,36.6,27.4,29.89,SSE,168,8.0,8.0,69,0.02,CLR,,0.02,WeatherDisplay:10.37,2013-02-26 16:36:00,
2013-02-26 11:41:00,36.5,27.6,29.88,SE,126,13.0,13.0,70,0.03,RA,,0.03,WeatherDisplay:10.37,2013-02-26 16:41:00,
2013-02-26 11:46:00,36.5,27.6,29.88,SE,129,10.4,10.4,70,0.03,RA,,0.03,WeatherDisplay:10.37,2013-02-26 16:46:00,
2013-02-26 11:51:00,36.4,27.9,29.88,ESE,123,9.2,9.2,71,0.03,CLR,,0.03,WeatherDisplay:10.37,2013-02-26 16:51:00,
2013-02-26 11:56:00,36.2,28.0,29.87,East,92,11.5,11.5,72,0.04,RA,,0.04,WeatherDisplay:10.37,2013-02-26 16:56:00,
2013-02-26 12:01:00,36.0,27.8,29.87,East,94,7.0,7.0,72,0.04,RA,,0.04,WeatherDisplay:10.37,2013-02-26 17:01:00,
2013-02-26 12:06:00,36.0,28.2,29.86,SE,141,15.0,15.0,73,0.04,CLR,,0.04,WeatherDisplay:10.37,2013-02-26 17:06:00,
2013-02-26 12:11:00,36.0,28.2,29.86,ESE,107,13.0,13.0,73,0.04,RA,,0.05,WeatherDisplay:10.37,2013-02-26 17:11:00,
2013-02-26 12:16:00,36.0,27.8,29.86,SE,131,13.0,13.0,72,0.04,RA,,0.05,WeatherDisplay:10.37,2013-02-26 17:16:00,
2013-02-26 12:21:00,36.0,27.8,29.86,SE,135,11.5,11.5,72,0.04,,,0.05,WeatherDisplay:10.37,2013-02-26 17:21:00,
2013-02-26 12:26:00,36.0,27.8,29.85,SE,136,13.8,13.8,72,0.03,CLR,,0.05,WeatherDisplay:10.37,2013-02-26 17:26:00,
2013-02-26 12:31:00,35.7,27.9,29.85,ESE,114,12.0,12.0,73,0.04,RA,,0.06,WeatherDisplay:10.37,2013-02-26 17:31:00,
2013-02-26 12:36:00,35.5,28.0,29.84,East,85,16.0,16.0,74,0.04,RA,,0.06,WeatherDisplay:10.37,2013-02-26 17:36:00,
2013-02-26 12:41:00,35.3,27.8,29.84,SSE,149,9.0,9.0,74,0.03,,,0.06,WeatherDisplay:10.37,2013-02-26 17:41:00,
2013-02-26 12:46:00,35.2,28.1,29.83,ESE,107,14.0,14.0,75,0.03,CLR,,0.06,WeatherDisplay:10.37,2013-02-26 17:46:00,
2013-02-26 12:51:00,35.0,27.9,29.83,SE,139,12.0,12.0,75,0.04,RA,,0.07,WeatherDisplay:10.37,2013-02-26 17:51:00,
2013-02-26 12:56:00,35.0,27.9,29.82,ESE,118,14.0,14.0,75,0.03,RA,,0.07,WeatherDisplay:10.37,2013-02-26 17:56:00,
2013-02-26 13:01:00,34.8,28.0,29.82,ESE,115,11.5,11.5,76,0.04,RA,,0.08,WeatherDisplay:10.37,2013-02-26 18:01:00,
2013-02-26 13:06:00,34.8,28.0,29.81,East,88,10.4,10.4,76,0.04,RA,,0.08,WeatherDisplay:10.37,2013-02-26 18:06:00,
2013-02-26 13:11:00,34.7,27.9,29.81,ESE,118,9.2,9.2,76,0.03,,,0.08,WeatherDisplay:10.37,2013-02-26 18:11:00,
2013-02-26 13:16:00,34.7,27.9,29.80,ESE,103,16.1,16.1,76,0.04,RA,,0.09,WeatherDisplay:10.37,2013-02-26 18:16:00,
2013-02-26 13:21:00,34.8,28.3,29.80,East,87,22.0,22.0,77,0.04,RA,,0.09,WeatherDisplay:10.37,2013-02-26 18:21:00,
2013-02-26 13:26:00,34.6,28.1,29.78,East,85,10.4,10.4,77,0.05,RA,,0.10,WeatherDisplay:10.37,2013-02-26 18:26:00,
2013-02-26 13:31:00,34.6,28.1,29.78,East,92,8.1,8.1,77,0.04,RA,,0.10,WeatherDisplay:10.37,2013-02-26 18:31:00,
2013-02-26 13:36:00,34.4,28.2,29.78,SSE,159,15.0,15.0,78,0.06,RA,,0.12,WeatherDisplay:10.37,2013-02-26 18:36:00,
2013-02-26 13:41:00,34.4,28.2,29.79,ESE,105,8.1,8.1,78,0.07,RA,,0.13,WeatherDisplay:10.37,2013-02-26 18:41:00,
2013-02-26 13:46:00,34.4,28.6,29.78,East,94,5.8,5.8,79,0.07,RA,,0.13,WeatherDisplay:10.37,2013-02-26 18:46:00,
2013-02-26 13:51:00,34.4,28.6,29.77,ENE,61,6.0,6.0,79,0.07,RA,,0.14,WeatherDisplay:10.37,2013-02-26 18:51:00,
2013-02-26 13:56:00,34.4,28.9,29.77,East,92,7.0,7.0,80,0.08,RA,,0.15,WeatherDisplay:10.37,2013-02-26 18:56:00,
2013-02-26 14:01:00,34.4,28.9,29.76,East,89,8.1,8.1,80,0.07,RA,,0.15,WeatherDisplay:10.37,2013-02-26 19:01:00,
2013-02-26 14:06:00,34.4,29.2,29.76,East,98,6.0,6.0,81,0.08,RA,,0.16,WeatherDisplay:10.37,2013-02-26 19:06:00,
2013-02-26 14:11:00,34.4,29.2,29.75,East,88,6.0,6.0,81,0.09,RA,,0.17,WeatherDisplay:10.37,2013-02-26 19:11:00,
2013-02-26 14:16:00,34.3,29.1,29.75,East,83,7.0,7.0,81,0.08,RA,,0.17,WeatherDisplay:10.37,2013-02-26 19:16:00,
2013-02-26 14:21:00,34.2,29.0,29.75,East,91,6.0,6.0,81,0.09,RA,,0.18,WeatherDisplay:10.37,2013-02-26 19:21:00,
2013-02-26 14:26:00,34.1,28.9,29.75,East,94,7.0,7.0,81,0.09,RA,,0.19,WeatherDisplay:10.37,2013-02-26 19:26:00,
2013-02-26 14:31:00,34.1,29.2,29.75,ESE,115,6.0,6.0,82,0.09,RA,,0.20,WeatherDisplay:10.37,2013-02-26 19:31:00,
2013-02-26 14:36:00,34.1,29.2,29.74,East,94,7.0,7.0,82,0.08,RA,,0.20,WeatherDisplay:10.37,2013-02-26 19:36:00,
2013-02-26 14:41:00,34.1,29.2,29.74,ESE,103,4.0,4.0,82,0.08,RA,,0.21,WeatherDisplay:10.37,2013-02-26 19:41:00,
2013-02-26 14:46:00,34.1,29.2,29.73,East,81,5.0,5.0,82,0.09,RA,,0.22,WeatherDisplay:10.37,2013-02-26 19:46:00,
2013-02-26 14:51:00,34.1,29.2,29.72,East,92,7.0,7.0,82,0.09,RA,,0.23,WeatherDisplay:10.37,2013-02-26 19:51:00,
2013-02-26 14:56:00,34.3,29.7,29.72,ENE,74,6.0,6.0,83,0.09,RA,,0.24,WeatherDisplay:10.37,2013-02-26 19:56:00,
2013-02-26 15:01:00,34.3,29.7,29.71,ESE,117,4.6,4.6,83,0.12,RA,,0.27,WeatherDisplay:10.37,2013-02-26 20:01:00,
2013-02-26 15:06:00,34.4,29.8,29.72,East,96,7.0,7.0,83,0.13,RA,,0.29,WeatherDisplay:10.37,2013-02-26 20:06:00,
2013-02-26 15:11:00,34.4,29.8,29.72,East,91,11.5,11.5,83,0.14,RA,,0.31,WeatherDisplay:10.37,2013-02-26 20:11:00,
2013-02-26 15:16:00,34.5,29.9,29.72,ENE,78,10.4,10.4,83,0.15,RA,,0.32,WeatherDisplay:10.37,2013-02-26 20:16:00,
2013-02-26 15:21:00,34.7,30.1,29.70,East,81,13.0,13.0,83,0.15,RA,,0.33,WeatherDisplay:10.37,2013-02-26 20:21:00,
2013-02-26 15:26:00,34.7,30.1,29.69,ENE,76,9.0,9.0,83,0.16,RA,,0.35,WeatherDisplay:10.37,2013-02-26 20:26:00,
2013-02-26 15:31:00,34.8,30.2,29.71,East,94,11.5,11.5,83,0.21,RA,,0.41,WeatherDisplay:10.37,2013-02-26 20:31:00,
2013-02-26 15:36:00,34.9,30.3,29.69,East,94,11.5,11.5,83,0.22,RA,,0.42,WeatherDisplay:10.37,2013-02-26 20:36:00,
2013-02-26 15:41:00,34.9,30.3,29.69,South,186,7.0,7.0,83,0.21,RA,,0.42,WeatherDisplay:10.37,2013-02-26 20:41:00,
2013-02-26 15:46:00,35.2,30.6,29.69,SE,145,9.2,9.2,83,0.20,CLR,,0.42,WeatherDisplay:10.37,2013-02-26 20:46:00,
2013-02-26 15:51:00,35.3,30.9,29.68,ENE,78,10.4,10.4,84,0.19,CLR,,0.42,WeatherDisplay:10.37,2013-02-26 20:51:00,
2013-02-26 15:56:00,35.6,31.2,29.68,East,88,5.0,5.0,84,0.18,CLR,,0.42,WeatherDisplay:10.37,2013-02-26 20:56:00,
2013-02-26 16:01:00,35.9,31.5,29.68,ENE,63,5.0,5.0,84,0.15,CLR,,0.42,WeatherDisplay:10.37,2013-02-26 21:01:00,
2013-02-26 16:06:00,36.0,31.6,29.68,NNE,24,7.0,7.0,84,0.13,CLR,,0.42,WeatherDisplay:10.37,2013-02-26 21:06:00,
2013-02-26 16:11:00,36.1,31.7,29.68,East,84,4.0,4.0,84,0.11,CLR,,0.42,WeatherDisplay:10.37,2013-02-26 21:11:00,
2013-02-26 16:16:00,36.3,31.9,29.68,East,79,7.0,7.0,84,0.10,CLR,,0.42,WeatherDisplay:10.37,2013-02-26 21:16:00,
2013-02-26 16:21:00,36.6,32.2,29.68,SE,142,6.0,6.0,84,0.09,CLR,,0.42,WeatherDisplay:10.37,2013-02-26 21:21:00,
2013-02-26 16:26:00,36.8,32.4,29.68,ESE,110,8.0,8.0,84,0.07,CLR,,0.42,WeatherDisplay:10.37,2013-02-26 21:26:00,
2013-02-26 16:31:00,36.9,32.5,29.68,ESE,104,6.0,6.0,84,0.01,CLR,,0.42,WeatherDisplay:10.37,2013-02-26 21:31:00,
2013-02-26 16:36:00,37.0,32.3,29.67,East,79,7.0,7.0,83,0.00,CLR,,0.42,WeatherDisplay:10.37,2013-02-26 21:36:00,
2013-02-26 16:41:00,37.2,32.5,29.67,ESE,110,8.1,8.1,83,0.00,CLR,,0.42,WeatherDisplay:10.37,2013-02-26 21:41:00,
2013-02-26 16:46:00,37.2,32.5,29.67,East,88,9.2,9.2,83,0.01,RA,,0.43,WeatherDisplay:10.37,2013-02-26 21:46:00,
2013-02-26 16:51:00,37.1,32.4,29.66,East,97,5.0,5.0,83,0.02,RA,,0.44,WeatherDisplay:10.37,2013-02-26 21:51:00,
2013-02-26 16:56:00,37.2,32.5,29.65,East,94,10.4,10.4,83,0.02,RA,,0.44,WeatherDisplay:10.37,2013-02-26 21:56:00,
2013-02-26 17:01:00,37.3,32.6,29.65,East,86,9.2,9.2,83,0.02,CLR,,0.44,WeatherDisplay:10.37,2013-02-26 22:01:00,
2013-02-26 17:06:00,37.5,32.8,29.65,East,91,9.0,9.0,83,0.02,CLR,,0.44,WeatherDisplay:10.37,2013-02-26 22:06:00,
2013-02-26 17:11:00,37.7,32.7,29.67,ESE,122,5.0,5.0,82,0.03,RA,,0.45,WeatherDisplay:10.37,2013-02-26 22:11:00,
2013-02-26 17:16:00,37.8,32.8,29.67,East,90,10.0,10.0,82,0.03,RA,,0.46,WeatherDisplay:10.37,2013-02-26 22:16:00,
2013-02-26 17:21:00,37.7,32.7,29.64,East,91,5.8,5.8,82,0.05,RA,,0.48,WeatherDisplay:10.37,2013-02-26 22:21:00,
2013-02-26 17:26:00,37.6,32.6,29.66,East,101,5.0,5.0,82,0.07,RA,,0.49,WeatherDisplay:10.37,2013-02-26 22:26:00,
2013-02-26 17:31:00,37.4,32.4,29.66,East,84,3.5,3.5,82,0.07,RA,,0.49,WeatherDisplay:10.37,2013-02-26 22:31:00,
2013-02-26 17:36:00,37.2,32.2,29.64,ENE,64,3.5,3.5,82,0.08,RA,,0.50,WeatherDisplay:10.37,2013-02-26 22:36:00,
2013-02-26 17:41:00,37.1,32.1,29.63,ENE,69,3.5,3.5,82,0.08,RA,,0.50,WeatherDisplay:10.37,2013-02-26 22:41:00,
2013-02-26 17:46:00,37.1,32.4,29.65,SE,132,1.0,0.0,83,0.07,CLR,,0.50,WeatherDisplay:10.37,2013-02-26 22:46:00,
2013-02-26 17:51:00,37.3,32.6,29.68,SSW,192,6.0,6.0,83,0.06,CLR,,0.50,WeatherDisplay:10.37,2013-02-26 22:51:00,
2013-02-26 17:56:00,37.5,32.8,29.68,South,171,2.3,2.3,83,0.07,RA,,0.51,WeatherDisplay:10.37,2013-02-26 22:56:00,
2013-02-26 18:01:00,37.3,32.6,29.69,SW,222,5.0,5.0,83,0.10,RA,,0.54,WeatherDisplay:10.37,2013-02-26 23:01:00,
2013-02-26 18:06:00,37.1,32.4,29.69,SSE,160,3.0,3.0,83,0.11,RA,,0.55,WeatherDisplay:10.37,2013-02-26 23:06:00,
2013-02-26 18:11:00,37.1,32.4,29.69,SSW,202,3.0,3.0,83,0.11,RA,,0.56,WeatherDisplay:10.37,2013-02-26 23:11:00,
2013-02-26 18:16:00,37.1,32.4,29.68,South,186,3.5,0.0,83,0.12,RA,,0.57,WeatherDisplay:10.37,2013-02-26 23:16:00,
2013-02-26 18:21:00,36.8,32.1,29.67,East,87,2.0,2.0,83,0.11,RA,,0.59,WeatherDisplay:10.37,2013-02-26 23:21:00,
2013-02-26 18:26:00,36.3,31.6,29.68,SE,128,2.0,2.0,83,0.11,RA,,0.60,WeatherDisplay:10.37,2013-02-26 23:26:00,
2013-02-26 18:31:00,36.4,31.7,29.69,SE,132,4.0,4.0,83,0.12,RA,,0.61,WeatherDisplay:10.37,2013-02-26 23:31:00,
2013-02-26 18:36:00,36.6,31.9,29.69,SSE,147,4.6,4.6,83,0.13,RA,,0.63,WeatherDisplay:10.37,2013-02-26 23:36:00,
2013-02-26 18:41:00,36.6,32.2,29.68,SE,133,3.5,3.5,84,0.14,RA,,0.64,WeatherDisplay:10.37,2013-02-26 23:41:00,
2013-02-26 18:46:00,36.5,31.8,29.67,East,94,3.5,3.5,83,0.14,RA,,0.64,WeatherDisplay:10.37,2013-02-26 23:46:00,
2013-02-26 18:51:00,36.3,31.9,29.67,East,94,1.2,1.2,84,0.15,RA,,0.65,WeatherDisplay:10.37,2013-02-26 23:51:00,
2013-02-26 18:56:00,36.4,32.0,29.67,East,94,2.3,2.3,84,0.13,RA,,0.65,WeatherDisplay:10.37,2013-02-26 23:56:00,
2013-02-26 19:01:00,36.4,32.0,29.67,East,86,3.5,3.5,84,0.11,,,0.65,WeatherDisplay:10.37,2013-02-27 00:01:00,
2013-02-26 19:06:00,36.4,32.0,29.66,ENE,70,5.0,5.0,84,0.10,CLR,,0.65,WeatherDisplay:10.37,2013-02-27 00:06:00,
2013-02-26 19:11:00,36.4,32.0,29.66,East,101,4.0,4.0,84,0.10,RA,,0.66,WeatherDisplay:10.37,2013-02-27 00:11:00,
2013-02-26 19:16:00,36.6,32.2,29.66,East,101,5.0,5.0,84,0.09,RA,,0.66,WeatherDisplay:10.37,2013-02-27 00:16:00,
2013-02-26 19:21:00,36.7,32.3,29.66,East,91,10.4,10.4,84,0.08,,,0.66,WeatherDisplay:10.37,2013-02-27 00:21:00,
2013-02-26 19:26:00,36.7,32.3,29.65,SSE,159,6.0,6.0,84,0.06,CLR,,0.66,WeatherDisplay:10.37,2013-02-27 00:26:00,
2013-02-26 19:31:00,36.8,32.4,29.66,South,173,7.0,7.0,84,0.06,RA,,0.67,WeatherDisplay:10.37,2013-02-27 00:31:00,
2013-02-26 19:36:00,36.8,32.4,29.66,SE,146,9.2,9.2,84,0.04,RA,,0.67,WeatherDisplay:10.37,2013-02-27 00:36:00,
2013-02-26 19:41:00,36.8,32.4,29.66,ESE,119,6.0,6.0,84,0.03,CLR,,0.67,WeatherDisplay:10.37,2013-02-27 00:41:00,
2013-02-26 19:46:00,36.9,32.5,29.66,South,188,4.0,4.0,84,0.03,CLR,,0.67,WeatherDisplay:10.37,2013-02-27 00:46:00,
2013-02-26 19:51:00,36.8,32.7,29.66,SSE,153,5.0,5.0,85,0.03,RA,,0.68,WeatherDisplay:10.37,2013-02-27 00:51:00,
2013-02-26 19:56:00,36.6,32.5,29.65,East,95,7.0,7.0,85,0.04,RA,,0.69,WeatherDisplay:10.37,2013-02-27 00:56:00,
2013-02-26 20:01:00,36.5,32.4,29.65,East,100,6.0,6.0,85,0.04,RA,,0.69,WeatherDisplay:10.37,2013-02-27 01:01:00,
2013-02-26 20:06:00,36.4,32.0,29.64,East,100,10.4,10.4,84,0.04,,,0.69,WeatherDisplay:10.37,2013-02-27 01:06:00,
2013-02-26 20:11:00,36.4,32.0,29.64,East,98,6.0,6.0,84,0.03,CLR,,0.69,WeatherDisplay:10.37,2013-02-27 01:11:00,
2013-02-26 20:16:00,36.3,31.9,29.64,ESE,113,8.1,8.1,84,0.03,CLR,,0.69,WeatherDisplay:10.37,2013-02-27 01:16:00,
2013-02-26 20:21:00,36.3,31.9,29.64,East,92,6.0,6.0,84,0.03,CLR,,0.69,WeatherDisplay:10.37,2013-02-27 01:21:00,
2013-02-26 20:26:00,36.3,31.9,29.64,East,100,11.5,11.5,84,0.03,CLR,,0.69,WeatherDisplay:10.37,2013-02-27 01:26:00,
2013-02-26 20:31:00,36.3,31.9,29.62,East,79,8.1,8.1,84,0.02,CLR,,0.69,WeatherDisplay:10.37,2013-02-27 01:31:00,
2013-02-26 20:36:00,36.4,32.0,29.63,SSE,167,9.0,9.0,84,0.02,CLR,,0.69,WeatherDisplay:10.37,2013-02-27 01:36:00,
2013-02-26 20:41:00,36.4,32.0,29.64,SE,143,9.0,9.0,84,0.03,RA,,0.70,WeatherDisplay:10.37,2013-02-27 01:41:00,
2013-02-26 20:46:00,36.5,32.4,29.63,ESE,112,9.2,9.2,85,0.03,RA,,0.70,WeatherDisplay:10.37,2013-02-27 01:46:00,
2013-02-26 20:51:00,36.5,32.4,29.62,East,98,8.1,8.1,85,0.02,CLR,,0.70,WeatherDisplay:10.37,2013-02-27 01:51:00,
2013-02-26 20:56:00,36.5,32.1,29.62,East,100,6.0,6.0,84,0.02,RA,,0.71,WeatherDisplay:10.37,2013-02-27 01:56:00,
2013-02-26 21:01:00,36.5,32.1,29.61,ESE,122,9.0,9.0,84,0.02,RA,,0.71,WeatherDisplay:10.37,2013-02-27 02:01:00,
2013-02-26 21:06:00,36.4,32.0,29.61,SSE,150,5.0,5.0,84,0.02,,,0.71,WeatherDisplay:10.37,2013-02-27 02:06:00,
2013-02-26 21:11:00,36.4,32.0,29.61,East,90,5.0,5.0,84,0.02,CLR,,0.71,WeatherDisplay:10.37,2013-02-27 02:11:00,
2013-02-26 21:16:00,36.4,32.0,29.61,East,82,10.4,10.4,84,0.02,CLR,,0.71,WeatherDisplay:10.37,2013-02-27 02:16:00,
2013-02-26 21:21:00,36.6,32.2,29.61,East,101,13.0,13.0,84,0.02,CLR,,0.71,WeatherDisplay:10.37,2013-02-27 02:21:00,
2013-02-26 21:26:00,36.7,32.3,29.60,ESE,115,11.5,11.5,84,0.02,CLR,,0.71,WeatherDisplay:10.37,2013-02-27 02:26:00,
2013-02-26 21:31:00,36.9,32.5,29.60,SE,128,9.2,9.2,84,0.02,CLR,,0.71,WeatherDisplay:10.37,2013-02-27 02:31:00,
2013-02-26 21:36:00,36.9,32.5,29.60,East,95,7.0,7.0,84,0.02,CLR,,0.71,WeatherDisplay:10.37,2013-02-27 02:36:00,
2013-02-26 21:41:00,37.1,32.7,29.59,ESE,106,8.1,8.1,84,0.01,CLR,,0.71,WeatherDisplay:10.37,2013-02-27 02:41:00,
2013-02-26 21:46:00,37.2,32.8,29.60,ESE,106,8.1,8.1,84,0.01,CLR,,0.71,WeatherDisplay:10.37,2013-02-27 02:46:00,
2013-02-26 21:51:00,37.3,32.9,29.59,East,79,3.5,3.5,84,0.01,CLR,,0.71,WeatherDisplay:10.37,2013-02-27 02:51:00,
2013-02-26 21:56:00,37.4,32.7,29.59,SE,139,4.0,4.0,83,0.00,CLR,,0.71,WeatherDisplay:10.37,2013-02-27 02:56:00,
2013-02-26 22:01:00,37.6,32.9,29.59,SE,146,3.5,3.5,83,0.00,CLR,,0.71,WeatherDisplay:10.37,2013-02-27 03:01:00,
2013-02-26 22:06:00,37.7,33.0,29.59,ESE,114,8.0,8.0,83,0.00,CLR,,0.71,WeatherDisplay:10.37,2013-02-27 03:06:00,
2013-02-26 22:11:00,37.9,32.9,29.59,SE,130,3.5,3.5,82,0.00,CLR,,0.71,WeatherDisplay:10.37,2013-02-27 03:11:00,
2013-02-26 22:16:00,38.0,33.0,29.58,SE,145,10.0,10.0,82,0.00,CLR,,0.71,WeatherDisplay:10.37,2013-02-27 03:16:00,
2013-02-26 22:21:00,38.3,33.3,29.58,SE,126,10.4,10.4,82,0.00,CLR,,0.71,WeatherDisplay:10.37,2013-02-27 03:21:00,
2013-02-26 22:26:00,38.4,33.1,29.58,East,101,9.2,9.2,81,0.00,CLR,,0.71,WeatherDisplay:10.37,2013-02-27 03:26:00,
2013-02-26 22:31:00,38.4,33.1,29.58,ESE,107,4.6,4.6,81,0.01,RA,,0.72,WeatherDisplay:10.37,2013-02-27 03:31:00,
2013-02-26 22:36:00,38.3,33.0,29.58,SSE,149,4.0,4.0,81,0.01,RA,,0.72,WeatherDisplay:10.37,2013-02-27 03:36:00,
2013-02-26 22:41:00,38.4,33.1,29.58,ESE,119,8.0,8.0,81,0.01,,,0.72,WeatherDisplay:10.37,2013-02-27 03:41:00,
2013-02-26 22:46:00,38.6,33.3,29.58,SE,131,7.0,7.0,81,0.01,CLR,,0.72,WeatherDisplay:10.37,2013-02-27 03:46:00,
2013-02-26 22:51:00,38.7,33.4,29.58,SE,138,10.4,10.4,81,0.01,CLR,,0.72,WeatherDisplay:10.37,2013-02-27 03:51:00,
2013-02-26 22:56:00,38.8,33.2,29.58,SSE,152,5.0,5.0,80,0.01,CLR,,0.72,WeatherDisplay:10.37,2013-02-27 03:56:00,
2013-02-26 23:01:00,38.8,33.2,29.58,ESE,103,5.0,5.0,80,0.01,CLR,,0.72,WeatherDisplay:10.37,2013-02-27 04:01:00,
2013-02-26 23:06:00,38.9,33.6,29.58,SSE,161,8.1,8.1,81,0.01,CLR,,0.73,WeatherDisplay:10.37,2013-02-27 04:06:00,
2013-02-26 23:11:00,38.9,33.3,29.58,SSE,148,6.0,6.0,80,0.02,RA,,0.73,WeatherDisplay:10.37,2013-02-27 04:11:00,
2013-02-26 23:16:00,38.9,33.3,29.58,SE,142,6.0,6.0,80,0.02,RA,,0.73,WeatherDisplay:10.37,2013-02-27 04:16:00,
2013-02-26 23:21:00,38.9,33.6,29.58,SE,137,4.0,4.0,81,0.02,CLR,,0.73,WeatherDisplay:10.37,2013-02-27 04:21:00,
2013-02-26 23:26:00,38.9,33.6,29.58,ESE,112,9.2,9.2,81,0.02,CLR,,0.73,WeatherDisplay:10.37,2013-02-27 04:26:00,
2013-02-26 23:31:00,39.0,33.7,29.57,ESE,105,11.5,11.5,81,0.01,CLR,,0.73,WeatherDisplay:10.37,2013-02-27 04:31:00,
2013-02-26 23:36:00,39.1,33.8,29.57,ESE,113,12.0,12.0,81,0.01,CLR,,0.73,WeatherDisplay:10.37,2013-02-27 04:36:00,
2013-02-26 23:41:00,39.2,33.9,29.57,SE,129,10.0,10.0,81,0.01,CLR,,0.73,WeatherDisplay:10.37,2013-02-27 04:41:00,
2013-02-26 23:46:00,39.2,33.9,29.58,SSW,200,9.0,9.0,81,0.01,CLR,,0.73,WeatherDisplay:10.37,2013-02-27 04:46:00,
2013-02-26 23:51:00,39.3,34.0,29.57,SE,130,9.2,9.2,81,0.01,CLR,,0.73,WeatherDisplay:10.37,2013-02-27 04:51:00,
2013-02-26 23:56:00,39.2,33.9,29.57,South,180,6.0,6.0,81,0.01,CLR,,0.73,WeatherDisplay:10.37,2013-02-27 04:56:00,